Terminal Aerodrome Forecast
Issued by NWS

Home | Current Version | Previous Version | Text Only | Print | Product List | Glossary On
Versions: 1 2 3 4 5 6 7 8 9 10 11 12 13 14 15 16 17 18 19 20 21 22 23 24 25 26 27 28 29 30 31 32 33 34 35 36 37 38 39 40 41 42 43 44 45 46 47 48 49 50
000
FTUS44 KHGX 221225 AAA
TAFIAH
TAF AMD
KIAH 221225Z 2212/2318 34010KT P6SM SCT005 OVC018
      TEMPO 2212/2213 BKN030
     FM221300 34012KT P6SM BKN008 OVC020
     FM221700 32011G21KT P6SM FEW020 BKN030
     FM222100 33010G20KT P6SM BKN250
     FM230200 33004KT P6SM BKN250
     FM231500 31010KT P6SM FEW250=

USA.gov is the U.S. government's official web portal to all federal, state and local government web resources and services.